Nearby METAR Reports

 

KAVP - Avoca/Wilkes B., Pennsylvania, USA
Distance from station: SW 13mi, 22km
Updated: Thu, 17-Oct-2019 00:11 EDT
NOT Current
Overcast
Overcast
 Wind from WNW
Wind: WNW 6 mph , 9 km/h
Temperature: 48°F , 9°C
Wind Chill: 45°F , 7°C
Dew Point: 43°F , 6°C
Humidity: 82%
Barometer: 29.41 inHg , 995.9 hPa
Clouds: Overcast
Visibility: 10 miles , 16 km
Cloud details: Mostly cloudy 2500 ft
Mostly cloudy 3100 ft
Overcast 4800 ft
2019/10/17 04:11 KAVP 170411Z 29005KT 10SM BKN025 BKN031 OVC048 09/06 A2941 RMK AO2 T00940061
KMPO - Mt. Pocono, Pennsylvania, USA
Distance from station: SSE 26mi, 43km
Updated: Sun, 20-Oct-2019 06:53 EDT
Clear
Clear
 Wind from SE
Wind: SE 5 mph , 7 km/h
Temperature: 39°F , 4°C
Wind Chill: 35°F , 2°C
Dew Point: 39°F , 4°C
Humidity: 100%
Barometer: 29.98 inHg , 1015.2 hPa
Clouds: Clear
Visibility: 10 miles , 16 km
2019/10/20 10:53 KMPO 201053Z AUTO 13004KT 10SM CLR 04/04 A2998 RMK AO2 SLP163 T00440039 $
 
KMSV - Monticello, New York, USA
Distance from station: ENE 43mi, 69km
Updated: Sun, 20-Oct-2019 06:56 EDT
Clear
Clear
 Wind from E
Wind: E 3 mph , 6 km/h
Temperature: 39°F , 4°C
Dew Point: 34°F , 1°C
Humidity: 81%
Barometer: 30.01 inHg , 1016.3 hPa
Clouds: Clear
Visibility: 10 miles , 16 km
2019/10/20 10:56 KMSV 201056Z AUTO 09003KT 10SM CLR 04/01 A3001 RMK AO2 SLP170 T00440011
KFWN - Sussex, New Jersey, USA
Distance from station: ESE 52mi, 84km
Updated: Sun, 20-Oct-2019 06:53 EDT
Clear
Clear
 Wind from calm
Wind: Calm
Temperature: 34°F , 1°C
Dew Point: 30°F , -1°C
Humidity: 87%
Barometer: 30.02 inHg , 1016.6 hPa
Clouds: Clear
Visibility: 10 miles , 16 km
2019/10/20 10:53 KFWN 201053Z AUTO 00000KT 10SM CLR 01/M01 A3002 RMK AO2 SLP166 T00061006
 
K12N - Andover, New Jersey, USA
Distance from station: SE 54mi, 87km
Updated: Sun, 20-Oct-2019 06:54 EDT

 Wind from calm
Wind: Calm
Temperature: 37°F , 3°C
Dew Point: 37°F , 3°C
Humidity: 100%
Barometer: 30.01 inHg , 1016.3 hPa
2019/10/20 10:54 K12N 201054Z AUTO 00000KT 03/03 A3001 RMK AO1 SLP168 T00330028
KBGM - Binghamton, New York, USA
Distance from station: NNW 55mi, 88km
Updated: Sun, 20-Oct-2019 06:53 EDT
Clear
Clear
 Wind from SSE
Wind: SSE 8 mph , 13 km/h
Temperature: 43°F , 6°C
Wind Chill: 38°F , 3°C
Dew Point: 37°F , 3°C
Humidity: 81%
Barometer: 29.94 inHg , 1013.9 hPa
Clouds: Clear
Visibility: 10 miles , 16 km
2019/10/20 10:53 KBGM 201053Z 16007KT 10SM CLR 06/03 A2994 RMK AO2 SLP144 T00610028 $
 
KABE - Allentown, Pennsylvania, USA
Distance from station: S 58mi, 94km
Updated: Wed, 16-Oct-2019 23:51 EDT
NOT Current
Mostly cloudy
Mostly cloudy
 Wind from WNW
Wind: WNW 13 mph , 20 km/h, Gust: 22 mph , 35 km/h
Temperature: 52°F , 11°C
Dew Point: 39°F , 4°C
Humidity: 62%
Barometer: 29.39 inHg , 995.3 hPa
Clouds: Mostly cloudy
Visibility: 10 miles , 16 km
Cloud details: Mostly cloudy 4600 ft
2019/10/17 03:51 KABE 170351Z 29011G19KT 10SM BKN046 11/04 A2939 RMK AO2 PK WND 29029/0339 SLP951 T01060039 $
KXLL - Allentown Queen, Pennsylvania, USA
Distance from station: S 64mi, 103km
Updated: Sun, 20-Oct-2019 07:15 EDT
Overcast
Overcast
 Wind from calm
Wind: Calm
Temperature: 43°F , 6°C
Dew Point: 41°F , 5°C
Humidity: 93%
Barometer: 30.02 inHg , 1016.6 hPa
Clouds: Overcast
Visibility: 10 miles , 16 km
Cloud details: Overcast 11000 ft
2019/10/20 11:15 KXLL 201115Z AUTO 00000KT 10SM OVC110 06/05 A3002 RMK AO2
 
KMGJ - Montgomery, New York, USA
Distance from station: E 67mi, 108km
Updated: Sun, 20-Oct-2019 06:54 EDT
Clear
Clear
 Wind from calm
Wind: Calm
Temperature: 32°F , 0°C
Dew Point: 32°F , 0°C
Humidity: 100%
Barometer: 30.01 inHg , 1016.3 hPa
Clouds: Clear
Visibility: 10 miles , 16 km
2019/10/20 10:54 KMGJ 201054Z AUTO 00000KT 10SM CLR 00/00 A3001 RMK AO2 SLP166 T00000000
KIPT - Williamsport, Pennsylvania, USA
Distance from station: WSW 72mi, 116km
Updated: Sun, 20-Oct-2019 06:54 EDT
Clear
Clear
 Wind from calm
Wind: Calm
Temperature: 45°F , 7°C
Dew Point: 39°F , 4°C
Humidity: 81%
Barometer: 29.96 inHg , 1014.6 hPa
Clouds: Clear
Visibility: 10 miles , 16 km
2019/10/20 10:54 KIPT 201054Z 00000KT 10SM CLR 07/04 A2996 RMK AO2 SLP148 T00720044
 
KUKT - Quakertown Arp, Pennsylvania, USA
Distance from station: S 74mi, 119km
Updated: Sun, 20-Oct-2019 07:15 EDT
Mostly cloudy
Mostly cloudy
 Wind from calm
Wind: Calm
Temperature: 43°F , 6°C
Dew Point: 43°F , 6°C
Humidity: 100%
Barometer: 30.01 inHg , 1016.3 hPa
Clouds: Mostly cloudy
Visibility: 10 miles , 16 km
Cloud details: Mostly cloudy 10000 ft
2019/10/20 11:15 KUKT 201115Z AUTO 00000KT 10SM BKN100 06/06 A3001 RMK A01
KSMQ - Somerville, New Jersey, USA
Distance from station: SE 76mi, 123km
Updated: Sun, 20-Oct-2019 06:53 EDT
Clear
Clear
 Wind from calm
Wind: Calm
Temperature: 37°F , 3°C
Dew Point: 36°F , 2°C
Humidity: 93%
Barometer: 30.01 inHg , 1016.3 hPa
Clouds: Clear
Visibility: 10 miles , 16 km
2019/10/20 10:53 KSMQ 201053Z AUTO 00000KT 10SM CLR 03/02 A3001 RMK AO2 SLP165 T00280022
 
KSWF - Newburgh/Stewart, New York, USA
Distance from station: E 77mi, 123km
Updated: Sun, 20-Oct-2019 06:45 EDT

 Wind from ESE
Wind: ESE 5 mph , 7 km/h
Visibility: 1/4 mile , 0.4 km
2019/10/20 10:45 KSWF 201045Z 11004KT 1/4SM RY9/600FT FG OVC002 04/04 A3002
KMMU - Morristown Muni, New Jersey, USA
Distance from station: SE 77mi, 124km
Updated: Sun, 20-Oct-2019 06:45 EDT
Partly cloudy
Partly cloudy
 Wind from calm
Wind: Calm
Temperature: 36°F , 2°C
Dew Point: 36°F , 2°C
Humidity: 100%
Barometer: 30.03 inHg , 1016.9 hPa
Clouds: Partly cloudy
Visibility: 10 miles , 16 km
Cloud details: Partly cloudy 25000 ft
2019/10/20 10:45 KMMU 201045Z 00000KT 10SM SCT250 02/02 A3003
 
KCDW - Caldwell, New Jersey, USA
Distance from station: ESE 79mi, 127km
Updated: Sun, 20-Oct-2019 06:53 EDT
Clear
Clear
 Wind from calm
Wind: Calm
Temperature: 39°F , 4°C
Dew Point: 37°F , 3°C
Humidity: 93%
Barometer: 30.03 inHg , 1016.9 hPa
Clouds: Clear
Visibility: 9 miles , 14 km
2019/10/20 10:53 KCDW 201053Z 00000KT 9SM CLR 04/03 A3003 RMK AO2 SLP175 T00440033
KRDG - Reading, Pennsylvania, USA
Distance from station: SSW 80mi, 130km
Updated: Sun, 20-Oct-2019 06:54 EDT
Mostly cloudy
Mostly cloudy
 Wind from NNW
Wind: NNW 3 mph , 6 km/h
Temperature: 46°F , 8°C
Dew Point: 45°F , 7°C
Humidity: 93%
Barometer: 29.99 inHg , 1015.6 hPa
Clouds: Mostly cloudy
Visibility: 10 miles , 16 km
Cloud details: Mostly cloudy 11000 ft
2019/10/20 10:54 KRDG 201054Z 34003KT 10SM BKN110 08/07 A2999 RMK AO2 SLP162 T00780067
 
KITH - Ithaca/Tompkins, New York, USA
Distance from station: NW 81mi, 131km
Updated: Sun, 20-Oct-2019 06:29 EDT
Clear
Clear
 Wind from SSE
Wind: SSE 6 mph , 9 km/h
Temperature: 48°F , 9°C
Wind Chill: 45°F , 7°C
Dew Point: 39°F , 4°C
Humidity: 71%
Barometer: 29.92 inHg , 1013.2 hPa
Clouds: Clear
Visibility: 10 miles , 16 km
2019/10/20 10:29 KITH 201029Z 15005KT 10SM CLR 09/04 A2992
KSEG - Selinsgrove, Pennsylvania, USA
Distance from station: SW 82mi, 132km
Updated: Sun, 20-Oct-2019 06:53 EDT
Mostly cloudy
Mostly cloudy
 Wind from calm
Wind: Calm
Temperature: 45°F , 7°C
Dew Point: 43°F , 6°C
Humidity: 93%
Barometer: 29.98 inHg , 1015.2 hPa
Clouds: Mostly cloudy
Visibility: 10 miles , 16 km
Cloud details: Mostly cloudy 10000 ft
2019/10/20 10:53 KSEG 201053Z AUTO 00000KT 10SM BKN100 07/06 A2998 RMK AO2 SLP154 T00720061
 
KELM - Elmira, New York, USA
Distance from station: WNW 82mi, 133km
Updated: Sun, 20-Oct-2019 06:53 EDT
Clear
Clear
 Wind from calm
Wind: Calm
Temperature: 39°F , 4°C
Dew Point: 37°F , 3°C
Humidity: 93%
Barometer: 29.94 inHg , 1013.9 hPa
Clouds: Clear
Visibility: 10 miles , 16 km
2019/10/20 10:53 KELM 201053Z 00000KT 10SM CLR 04/03 A2994 RMK AO2 SLP143 T00440028
KDYL - Doylestown, Pennsylvania, USA
Distance from station: SSE 83mi, 134km
Updated: Sun, 20-Oct-2019 06:54 EDT
Clear
Clear
 Wind from NE
Wind: NE 3 mph , 6 km/h
Temperature: 43°F , 6°C
Dew Point: 39°F , 4°C
Humidity: 87%
Barometer: 30.00 inHg , 1015.9 hPa
Clouds: Clear
Visibility: 10 miles , 16 km
2019/10/20 10:54 KDYL 201054Z AUTO 04003KT 10SM CLR 06/04 A3000 RMK AO2 SLP162 T00610044